M I D A S
Marine Information and Data Acquisition System
Tripno 307 of the Zeeleeuw from 2002-08-21 06:54:07 to 2002-08-21 15:43:45
Back to CruiseResearch ActivitiesStationsMapUnderway DataData graphs

EquipmentUnitsComment
TimeDGPSUTC
LatitudeDGPSDM.mWGS84
LongitudeDGPSDM.mWGS84
HeadingGyrodeg 
SOGDGPSknotsSpeed over ground
COGDGPSdegCourse over ground
DepthEcho soundermeters200 kHz
Missing or incorrect values are displayed as -999
Navigation data collected by the RV Zeeleeuw from 2002-08-21 06:54:07 to 2002-08-21 15:43:45
                                                                                    Next 1000 lines
Time Latitude Longitude Heading SOG COG Depth
2002-08-21 06:54:16 51°13.662 2°55.956 110.8   213.3 7.6
2002-08-21 06:54:21 51°13.662 2°55.956 110.5 0.1 284.4 7.6
2002-08-21 06:54:27 51°13.663 2°55.955 110.3 0.2 300.7 7.6
2002-08-21 06:54:31 51°13.663 2°55.954 110.2 0.4 300.3 7.6
2002-08-21 06:54:36 51°13.664 2°55.952 109.7 0.7 297.6 7.6
2002-08-21 06:54:41 51°13.664 2°55.95 109 0.9 298.5 7.5
2002-08-21 06:54:46 51°13.665 2°55.948 107.7 1.1 297.2 7.6
2002-08-21 06:54:51 51°13.666 2°55.945 106.5 1.4 294.7 7.5
2002-08-21 06:54:57 51°13.667 2°55.94 105.3 1.7 290.8 -999
2002-08-21 06:55:02 51°13.668 2°55.936 104.5 1.9 289.5 -999
2002-08-21 06:55:07 51°13.669 2°55.931 104.2 2.2 287.7 -999
2002-08-21 06:55:12 51°13.67 2°55.925 104.2 2.4 286.9 -999
2002-08-21 06:55:17 51°13.671 2°55.92 104 2.6 286.3 -999
2002-08-21 06:55:22 51°13.672 2°55.913 103.8 2.8 286.5 -999
2002-08-21 06:55:27 51°13.673 2°55.907 103 2.9 286.4 -999
2002-08-21 06:55:32 51°13.674 2°55.9 101.7 3 286.3 -999
2002-08-21 06:55:37 51°13.675 2°55.894 100.2 3.1 284.8 -999
2002-08-21 06:55:42 51°13.676 2°55.887 98.7 3.2 283.7 -999
2002-08-21 06:55:47 51°13.677 2°55.88 97.8 3.3 282.8 -999
2002-08-21 06:55:52 51°13.678 2°55.872 97.2 3.4 281.5 -999
2002-08-21 06:55:57 51°13.679 2°55.865 96.3 3.4 280.8 -999
2002-08-21 06:56:02 51°13.68 2°55.857 95.3 3.5 279.8 -999
2002-08-21 06:56:07 51°13.681 2°55.849 94.3 3.5 279 -999
2002-08-21 06:56:12 51°13.681 2°55.841 93.3 3.6 277.8 -999
2002-08-21 06:56:17 51°13.682 2°55.833 92.2 3.7 276.7 -999
2002-08-21 06:56:22 51°13.682 2°55.824 91.2 3.7 275.5 -999
2002-08-21 06:56:27 51°13.683 2°55.816 90.3 3.8 274.5 -999
2002-08-21 06:56:32 51°13.683 2°55.807 89.3 3.8 273.7 -999
2002-08-21 06:56:37 51°13.683 2°55.799 88.3 3.9 271.9 -999
2002-08-21 06:56:42 51°13.683 2°55.79 87.2 3.9 270.9 -999
2002-08-21 06:56:47 51°13.683 2°55.781 85.7 3.9 269.7 -999
2002-08-21 06:56:52 51°13.683 2°55.773 84.3 3.9 268.9 -999
2002-08-21 06:56:57 51°13.683 2°55.764 82.8 3.8 267.1 -999
2002-08-21 06:57:01 51°13.682 2°55.758 81 3.6 265.3 -999
2002-08-21 06:57:06 51°13.681 2°55.751 79.5 3.4 262.6 12.2
2002-08-21 06:57:11 51°13.68 2°55.744 77.8 3.2 260.1 12.8
2002-08-21 06:57:16 51°13.68 2°55.739 76.2 2.9 258.6 13.3
2002-08-21 06:57:21 51°13.679 2°55.735 73.5 2.2 255.7 13.3
2002-08-21 06:57:25 51°13.679 2°55.733 70.5 1.6 254.6 13.4
2002-08-21 06:57:31 51°13.678 2°55.73 67.2 1.1 254 13.3
2002-08-21 06:57:37 51°13.679 2°55.729 63.7 0.7 255.5 13.3
2002-08-21 06:57:41 51°13.679 2°55.729 60.5 0.3 261.1 13.3
2002-08-21 06:57:46 51°13.679 2°55.729 56.8 0.1 23 13.3
2002-08-21 06:57:51 51°13.68 2°55.731 52 0.5 42.8 13.2
2002-08-21 06:57:56 51°13.681 2°55.732 46.7 0.8 40.7 12.9
2002-08-21 06:58:01 51°13.683 2°55.734 41 1.2 35.4 13.6
2002-08-21 06:58:05 51°13.684 2°55.735 34.5 1.5 28.8 13.4
2002-08-21 06:58:11 51°13.687 2°55.736 27.5 1.7 22.2 13.3
2002-08-21 06:58:16 51°13.69 2°55.737 20.7 1.9 15.2 12.8
2002-08-21 06:58:21 51°13.693 2°55.737 14.2 2.1 8.1 12.1
2002-08-21 06:58:26 51°13.696 2°55.737 7 2.3 2.7 12.3
2002-08-21 06:58:31 51°13.7 2°55.736 359.5 2.6 354.5 12.9
2002-08-21 06:58:36 51°13.704 2°55.735 352.5 2.8 349.5 12.4
2002-08-21 06:58:41 51°13.708 2°55.732 346 3.1 342.3 11.9
2002-08-21 06:58:46 51°13.713 2°55.729 342.5 3.4 337.9 11.1
2002-08-21 06:58:51 51°13.718 2°55.725 340 3.8 334.8 10.6
2002-08-21 06:58:56 51°13.723 2°55.72 339.2 4 333.3 10.5
2002-08-21 06:59:01 51°13.728 2°55.716 339.5 4.3 332.3 9.8
2002-08-21 06:59:05 51°13.733 2°55.712 339.8 4.5 332.4 9.7
2002-08-21 06:59:11 51°13.74 2°55.706 339 4.7 332.4 9.7
2002-08-21 06:59:16 51°13.746 2°55.701 338.2 4.9 331.9 9.5
2002-08-21 06:59:21 51°13.753 2°55.695 337.5 5.2 332.3 9.6
2002-08-21 06:59:25 51°13.758 2°55.691 337.7 5.4 332.3 9.6
2002-08-21 06:59:32 51°13.768 2°55.683 339.3 5.6 333.6 9.7
2002-08-21 06:59:36 51°13.774 2°55.679 340.2 5.7 334.8 9.6
2002-08-21 06:59:41 51°13.782 2°55.673 340.2 5.9 335.9 9.7
2002-08-21 06:59:46 51°13.79 2°55.668 339.5 6.1 336 10.2
2002-08-21 06:59:51 51°13.798 2°55.662 339.5 6.2 336.3 10
2002-08-21 06:59:56 51°13.806 2°55.657 339.8 6.3 336.9 10
2002-08-21 07:00:01 51°13.814 2°55.652 340.3 6.4 337.7 10.2
2002-08-21 07:00:06 51°13.823 2°55.646 341 6.5 338.5 10.4
2002-08-21 07:00:11 51°13.831 2°55.641 341 6.6 339.1 10.2
2002-08-21 07:00:16 51°13.84 2°55.635 340 6.6 338.6 9.9
2002-08-21 07:00:21 51°13.848 2°55.63 339.5 6.7 338.4 10
2002-08-21 07:00:27 51°13.859 2°55.623 339.7 6.8 337.9 10.2
2002-08-21 07:00:31 51°13.866 2°55.619 340.5 6.8 338.5 10.2
2002-08-21 07:00:36 51°13.875 2°55.614 340.7 6.9 338.7 10.2
2002-08-21 07:00:41 51°13.884 2°55.608 340.5 6.9 338.7 10.2
2002-08-21 07:00:45 51°13.891 2°55.603 339.8 7 338 10.1
2002-08-21 07:00:52 51°13.904 2°55.595 339.8 7 337.8 10.4
2002-08-21 07:00:57 51°13.913 2°55.589 339.8 7 337.4 10.7
2002-08-21 07:01:01 51°13.92 2°55.584 340.7 7.1 337.9 10.5
2002-08-21 07:01:05 51°13.927 2°55.579 340.5 7.1 338 10.5
2002-08-21 07:01:11 51°13.938 2°55.572 340.2 7.1 338 10.5
2002-08-21 07:01:16 51°13.947 2°55.566 340.5 7.1 338 11
2002-08-21 07:01:21 51°13.957 2°55.561 341.2 7.1 338.4 10.5
2002-08-21 07:01:26 51°13.966 2°55.555 341 7.1 338.7 10.3
2002-08-21 07:01:32 51°13.977 2°55.548 340.8 7.1 338.5 10.8
2002-08-21 07:01:37 51°13.986 2°55.542 340.5 7.1 338.7 11.1
2002-08-21 07:01:41 51°13.993 2°55.538 340.8 7.1 338.8 10.7
2002-08-21 07:01:46 51°14.003 2°55.532 341.2 7.1 339 10.8
2002-08-21 07:01:51 51°14.012 2°55.527 340.8 7.1 339.2 10.6
2002-08-21 07:01:56 51°14.021 2°55.521 340.3 7.1 339 10.4
2002-08-21 07:02:01 51°14.03 2°55.515 339.3 7.1 338.5 10.3
2002-08-21 07:02:06 51°14.039 2°55.509 339.2 7.1 337.9 10.1
2002-08-21 07:02:11 51°14.048 2°55.503 339.2 7.1 337.7 10.4
2002-08-21 07:02:16 51°14.057 2°55.497 338.5 7.1 337.4 10.3
2002-08-21 07:02:21 51°14.066 2°55.491 337.5 7.1 336.9 10.2
2002-08-21 07:02:25 51°14.073 2°55.485 336.3 7.1 335.6 10.1
2002-08-21 07:02:31 51°14.084 2°55.476 335.7 7.1 333.8 10.2
2002-08-21 07:02:36 51°14.093 2°55.469 335 7.1 332.5 10.1
2002-08-21 07:02:41 51°14.101 2°55.461 334 7.1 331.2 10.2
2002-08-21 07:02:46 51°14.109 2°55.453 333.2 7.1 330.3 10.2
2002-08-21 07:02:52 51°14.12 2°55.444 332.5 7.1 329.9 10.1
2002-08-21 07:02:56 51°14.126 2°55.437 332.2 7.1 329.7 10.1
2002-08-21 07:03:01 51°14.135 2°55.429 331.5 7.1 329.4 10.1
2002-08-21 07:03:06 51°14.143 2°55.421 329.5 7.1 328 10.3
2002-08-21 07:03:11 51°14.151 2°55.412 327.8 7.2 326.4 10.6
2002-08-21 07:03:17 51°14.161 2°55.401 326.8 7.2 325.3 10.7
2002-08-21 07:03:21 51°14.168 2°55.393 326.3 7.2 324.7 10.6
2002-08-21 07:03:26 51°14.176 2°55.383 325 7.3 323.7 10.4
2002-08-21 07:03:31 51°14.184 2°55.373 324 7.3 322.5 10.2
2002-08-21 07:03:36 51°14.192 2°55.363 323.2 7.3 321.1 10.5
2002-08-21 07:03:41 51°14.2 2°55.353 322.5 7.4 320.3 10.4
2002-08-21 07:03:46 51°14.208 2°55.342 321.5 7.4 319.4 10.4
2002-08-21 07:03:52 51°14.217 2°55.328 320.5 7.4 318.1 10.5
2002-08-21 07:03:57 51°14.225 2°55.317 319.8 7.4 317.3 10.4
2002-08-21 07:04:01 51°14.231 2°55.308 319 7.4 316.4 10.5
2002-08-21 07:04:05 51°14.237 2°55.299 318.5 7.3 316.1 10.5
2002-08-21 07:04:11 51°14.246 2°55.285 317.7 7.3 315.4 10.4
2002-08-21 07:04:16 51°14.253 2°55.273 316.3 7.3 314.9 10.5
2002-08-21 07:04:21 51°14.26 2°55.262 315.5 7.3 313.7 10.5
2002-08-21 07:04:26 51°14.266 2°55.25 314.8 7.3 313.1 10.4
2002-08-21 07:04:31 51°14.273 2°55.238 314 7.2 311.9 10.2
2002-08-21 07:04:36 51°14.279 2°55.227 313.3 7.2 311.4 10.3
2002-08-21 07:04:41 51°14.285 2°55.214 312.7 7.2 310.3 10.3
2002-08-21 07:04:45 51°14.29 2°55.205 312 7.2 310.1 10.3
2002-08-21 07:04:52 51°14.298 2°55.187 311.8 7.2 309.3 10.3
2002-08-21 07:04:57 51°14.305 2°55.175 312 7.2 309.5 10.3
2002-08-21 07:05:01 51°14.309 2°55.165 312 7.1 309.1 10.2
2002-08-21 07:05:07 51°14.317 2°55.151 311.8 7.1 309.1 10.2
2002-08-21 07:05:12 51°14.322 2°55.138 311.3 7.1 308.1 10.2
2002-08-21 07:05:16 51°14.327 2°55.128 310.2 7 307.7 10.1
2002-08-21 07:05:21 51°14.333 2°55.116 309.8 6.9 306.4 10
2002-08-21 07:05:25 51°14.337 2°55.107 309.8 6.7 306.1 10
2002-08-21 07:05:32 51°14.345 2°55.089 309.8 6.8 305.7 9.9
2002-08-21 07:05:36 51°14.35 2°55.079 311.3 6.9 306.3 10.5
2002-08-21 07:05:41 51°14.356 2°55.067 313.2 7.1 307.5 10.6
2002-08-21 07:05:45 51°14.361 2°55.057 314.7 7.3 309.6 10.2
2002-08-21 07:05:51 51°14.37 2°55.041 315.5 7.6 310.5 10.2
2002-08-21 07:05:56 51°14.376 2°55.028 315.7 7.8 310.9 10
2002-08-21 07:06:01 51°14.384 2°55.015 315.7 7.8 310.5 10
2002-08-21 07:06:06 51°14.391 2°55.001 316.5 7.9 310.5 10
2002-08-21 07:06:11 51°14.399 2°54.987 317.3 8.1 311.5 9.9
2002-08-21 07:06:16 51°14.407 2°54.974 320 8.2 312.3 10
2002-08-21 07:06:21 51°14.415 2°54.962 322.3 8.2 314.3 9.9
2002-08-21 07:06:25 51°14.421 2°54.952 324.3 8.1 315.3 9.9
2002-08-21 07:06:32 51°14.433 2°54.935 326.7 8.1 317.2 9.8
2002-08-21 07:06:36 51°14.44 2°54.926 329.3 8.2 318.9 9.9
2002-08-21 07:06:41 51°14.45 2°54.915 333.2 8.2 322.3 9.7
2002-08-21 07:06:46 51°14.459 2°54.906 337.3 8 326.3 9.7
2002-08-21 07:06:51 51°14.468 2°54.898 339.2 8 329.1 9.7
2002-08-21 07:06:56 51°14.478 2°54.89 340.2 8 330.7 9.7
2002-08-21 07:07:01 51°14.488 2°54.881 340.2 8.1 331.4 9.7
2002-08-21 07:07:06 51°14.498 2°54.873 340.3 8.2 331.6 9.7
2002-08-21 07:07:12 51°14.51 2°54.862 339.7 8.2 331.3 9.6
2002-08-21 07:07:16 51°14.518 2°54.855 339.8 8.2 331.2 9.7
2002-08-21 07:07:21 51°14.528 2°54.846 339.8 8.3 331.3 9.6
2002-08-21 07:07:27 51°14.541 2°54.836 340.5 8.4 331.9 9.5
2002-08-21 07:07:31 51°14.549 2°54.829 340.3 8.5 332 9.5
2002-08-21 07:07:36 51°14.56 2°54.82 340.3 8.5 332.1 9.5
2002-08-21 07:07:41 51°14.57 2°54.812 340.3 8.5 332.7 9.4
2002-08-21 07:07:45 51°14.578 2°54.804 340.2 8.4 332 9.4
2002-08-21 07:07:51 51°14.59 2°54.794 340.2 8.3 331.6 9.4
2002-08-21 07:07:56 51°14.6 2°54.785 340 8.2 331.2 9.3
2002-08-21 07:08:01 51°14.609 2°54.776 339.2 7.9 330.3 9.4
2002-08-21 07:08:05 51°14.616 2°54.769 338.5 7.7 329.6 9.4
2002-08-21 07:08:11 51°14.627 2°54.759 338.3 7.5 329.1 9.4
2002-08-21 07:08:16 51°14.635 2°54.751 338 7.4 328.7 9.5
2002-08-21 07:08:21 51°14.644 2°54.742 337.2 7.3 327.8 9.5
2002-08-21 07:08:25 51°14.651 2°54.735 338 7.3 327.9 9.5
2002-08-21 07:08:31 51°14.661 2°54.725 339.7 7.2 328.8 9.5
2002-08-21 07:08:36 51°14.67 2°54.718 340.7 7.1 330 9.5
2002-08-21 07:08:41 51°14.678 2°54.711 341.2 7 331.2 9.4
2002-08-21 07:08:45 51°14.685 2°54.704 341.2 7 331.5 9.4
2002-08-21 07:08:51 51°14.695 2°54.696 340.7 7 331.5 9.5
2002-08-21 07:08:56 51°14.704 2°54.688 340.5 6.9 331.1 9.5
2002-08-21 07:09:01 51°14.712 2°54.681 340.2 6.8 330.9 9.5
2002-08-21 07:09:05 51°14.718 2°54.675 340.7 6.6 330.2 9.4
2002-08-21 07:09:11 51°14.728 2°54.666 341.2 6.5 330 9.4
2002-08-21 07:09:16 51°14.736 2°54.659 341.2 6.5 330.2 9.5
2002-08-21 07:09:21 51°14.744 2°54.653 342.3 6.6 331.3 9.4
2002-08-21 07:09:25 51°14.751 2°54.647 343.5 6.9 333.3 9.5
2002-08-21 07:09:31 51°14.763 2°54.64 346.5 7.3 336.7 9.4
2002-08-21 07:09:36 51°14.773 2°54.635 350.2 7.8 340 9.4
2002-08-21 07:09:41 51°14.785 2°54.631 354.8 8.4 345.9 8.9
2002-08-21 07:09:47 51°14.8 2°54.627 357.3 8.7 349.8 9.2
2002-08-21 07:09:51 51°14.81 2°54.625 357.8 9.1 351.8 9.2
2002-08-21 07:09:56 51°14.824 2°54.622 357.8 9.5 351.4 9.1
2002-08-21 07:10:01 51°14.838 2°54.619 359 10.1 352.5 9.2
2002-08-21 07:10:05 51°14.85 2°54.617 0.3 10.4 353.4 9.2
2002-08-21 07:10:11 51°14.868 2°54.616 2.5 10.8 355.6 9.2
2002-08-21 07:10:17 51°14.886 2°54.614 4 10.9 356.8 9.2
2002-08-21 07:10:21 51°14.899 2°54.613 2.3 11.1 356.9 9.1
2002-08-21 07:10:26 51°14.915 2°54.61 359.7 11.3 355 9
2002-08-21 07:10:31 51°14.93 2°54.606 359 11.4 352.7 8.9
2002-08-21 07:10:36 51°14.946 2°54.604 359.8 11.4 353.5 8.8
2002-08-21 07:10:41 51°14.962 2°54.601 359.5 11.4 353.7 8.8
2002-08-21 07:10:45 51°14.975 2°54.6   11.5 354.4 8.4
2002-08-21 07:10:52 51°14.997 2°54.595 0.3 11.6 353.8 8.4
2002-08-21 07:10:56 51°15.01 2°54.593 0.2 11.6 354.1 8.3
2002-08-21 07:11:01 51°15.026 2°54.59 0.2 11.5 354.1 8.1
2002-08-21 07:11:05 51°15.038 2°54.589 0.8 11.5 354.4 8.2
2002-08-21 07:11:11 51°15.057 2°54.586   11.4 354.4 8.2
2002-08-21 07:11:16 51°15.073 2°54.584 1 11.4 354.7 8
2002-08-21 07:11:21 51°15.089 2°54.581 359.7 11.3 354.3 8
2002-08-21 07:11:25 51°15.101 2°54.578 359.3 11.4 353 8
2002-08-21 07:11:31 51°15.12 2°54.574 358.2 11.5 352.2 8.1
2002-08-21 07:11:36 51°15.136 2°54.571 358.3 11.5 351.8 8.1
2002-08-21 07:11:41 51°15.151 2°54.566 357 11.4 351.6 8.2
2002-08-21 07:11:45 51°15.164 2°54.564 358.2 11.4 351.7 8.2
2002-08-21 07:11:51 51°15.183 2°54.558 357.3 11.6 350.9 8.3
2002-08-21 07:11:56 51°15.199 2°54.554 356.7 11.7 350 8.3
2002-08-21 07:12:01 51°15.215 2°54.548 355.8 11.8 349.4 8.4
2002-08-21 07:12:05 51°15.228 2°54.544 354.8 11.8 348.5 8.5
2002-08-21 07:12:11 51°15.248 2°54.538 355.2 11.8 348.5 8.4
2002-08-21 07:12:16 51°15.263 2°54.533 355 11.7 348.5 8.5
2002-08-21 07:12:21 51°15.279 2°54.527 354.5 11.7 348.5 8.6
2002-08-21 07:12:26 51°15.295 2°54.522 354.8 11.8 348.3 8.6
2002-08-21 07:12:32 51°15.315 2°54.516 355 11.8 348.2 8.7
2002-08-21 07:12:36 51°15.327 2°54.511 354.5 11.9 347.6 8.7
2002-08-21 07:12:41 51°15.344 2°54.506 354.5 11.9 348 8.7
2002-08-21 07:12:47 51°15.363 2°54.499 354.5 11.9 347.7 8.8
2002-08-21 07:12:51 51°15.376 2°54.495 354.8 12 348.4 8.9
2002-08-21 07:12:56 51°15.393 2°54.49 354.5 12 348.2 8.9
2002-08-21 07:13:01 51°15.41 2°54.485 355 12.2 349.1 8.9
2002-08-21 07:13:07 51°15.429 2°54.478 355.2 12.2 348.4 9
2002-08-21 07:13:11 51°15.443 2°54.474 355.2 12.3 349.3 9
2002-08-21 07:13:16 51°15.46 2°54.468 354.5 12.4 347.8 9.1
2002-08-21 07:13:21 51°15.477 2°54.463 355.2 12.4 348.6 9.2
2002-08-21 07:13:25 51°15.49 2°54.457 354.8 12.5 347.5 9.2
2002-08-21 07:13:31 51°15.511 2°54.452 354.8 12.5 348.7 9.2
2002-08-21 07:13:36 51°15.528 2°54.445 355.2 12.6 347.6 9.3
2002-08-21 07:13:41 51°15.545 2°54.44 354.8 12.7 348.3 9.4
2002-08-21 07:13:46 51°15.562 2°54.434 355.2 12.7 347.6 9.4
2002-08-21 07:13:51 51°15.58 2°54.429 355.2 12.6 349 9.4
2002-08-21 07:13:56 51°15.597 2°54.423 355.8 12.7 348.5 9.5
2002-08-21 07:14:01 51°15.614 2°54.418 354.8 12.7 349.1 9.5
2002-08-21 07:14:05 51°15.628 2°54.412 356.3 12.7 348.7 9.6
2002-08-21 07:14:11 51°15.649 2°54.407 355 12.7 349.7 9.6
2002-08-21 07:14:16 51°15.666 2°54.401 356.2 12.8 349.1 9.7
2002-08-21 07:14:21 51°15.684 2°54.395 354.5 12.8 348.8 9.8
2002-08-21 07:14:25 51°15.698 2°54.391 355.7 12.8 348.1 9.8
2002-08-21 07:14:32 51°15.722 2°54.381 354.3 12.9 347.7 9.9
2002-08-21 07:14:36 51°15.737 2°54.377 354.8 12.9 347.6 10
2002-08-21 07:14:41 51°15.754 2°54.37 354.2 13 346.8 10
2002-08-21 07:14:45 51°15.768 2°54.366 355.3 12.9 347.2 10.1
2002-08-21 07:14:52 51°15.792 2°54.356 354 12.9 346.8 10.2
2002-08-21 07:14:56 51°15.806 2°54.353 356 12.8 347.5 10.2
2002-08-21 07:15:01 51°15.824 2°54.346 355 12.8 347.7 10.3
2002-08-21 07:15:06 51°15.841 2°54.341 356.2 12.8 349 10.4
2002-08-21 07:15:12 51°15.861 2°54.334 355.7 12.7 348.4 10.4
2002-08-21 07:15:16 51°15.875 2°54.33 356 12.7 349 10.5
2002-08-21 07:15:21 51°15.892 2°54.325 357 12.6 349.1 10.5
2002-08-21 07:15:25 51°15.906 2°54.321 357 12.5 349.9 10.7
2002-08-21 07:15:31 51°15.926 2°54.316 358.3 12.4 350.6 10.6
2002-08-21 07:15:36 51°15.943 2°54.312 357.7 12.3 351.1 10.7
2002-08-21 07:15:41 51°15.96 2°54.307 358.5 12.3 350.5 10.9
2002-08-21 07:15:45 51°15.973 2°54.304 358.2 12.2 350.8 10.9
2002-08-21 07:15:51 51°15.991 2°54.298 358.5 11.4 350.1 10.9
2002-08-21 07:15:56 51°16.005 2°54.294 358.3 10.6 349.7 11
2002-08-21 07:16:01 51°16.018 2°54.29 358 9.9 349.1 11.1
2002-08-21 07:16:05 51°16.028 2°54.287 358.5 9.2 349.2 11.2
2002-08-21 07:16:11 51°16.042 2°54.284   8.6 350.6 11.2
2002-08-21 07:16:16 51°16.053 2°54.282 2.3 8.1 352.2 11.3
2002-08-21 07:16:21 51°16.062 2°54.281 5.3 7.3 355.7 11.2
2002-08-21 07:16:25 51°16.069 2°54.282 9.2 6.7 359.3 11.1
2002-08-21 07:16:31 51°16.079 2°54.283 12.3 6.3 2.7 11.2
2002-08-21 07:16:36 51°16.087 2°54.284 15.3 5.9 4.8 11.3
2002-08-21 07:16:41 51°16.094 2°54.286 18.2 5.3 8.3 11.2
2002-08-21 07:16:46 51°16.1 2°54.288 19.8 4.7 10.1 11.2
2002-08-21 07:16:51 51°16.106 2°54.29 20.5 4.3 11.5 11.3
2002-08-21 07:16:56 51°16.111 2°54.292 20.8 4.1 12.2 11.4
2002-08-21 07:17:01 51°16.116 2°54.293 22 3.7 13 11.4
2002-08-21 07:17:05 51°16.119 2°54.295 22.8 3.5 13.9 11.5
2002-08-21 07:17:11 51°16.124 2°54.297 22.8 3.2 15 11.5
2002-08-21 07:17:16 51°16.128 2°54.298 24.2 3 16 11.4
2002-08-21 07:17:21 51°16.131 2°54.3 25 2.6 18.4 11.4
2002-08-21 07:17:25 51°16.133 2°54.302 25.5 2.5 19.1 11.4
2002-08-21 07:17:31 51°16.137 2°54.304 25.7 2.3 21.4 11.3
2002-08-21 07:17:36 51°16.139 2°54.306 25.3 2.1 20.8 11.3
2002-08-21 07:17:41 51°16.142 2°54.308 25.2 1.9 23.3 11.3
2002-08-21 07:17:45 51°16.143 2°54.309 25.5 1.8 24.1 11.3
2002-08-21 07:17:52 51°16.146 2°54.311 25.2 1.6 27.7 11.2
2002-08-21 07:17:56 51°16.148 2°54.313 25.8 1.6 26.4 11.3
2002-08-21 07:18:01 51°16.15 2°54.314 26.3 1.5 24.5 11.3
2002-08-21 07:18:06 51°16.152 2°54.316 26.5 1.7 23.3 11.4
2002-08-21 07:18:11 51°16.154 2°54.318 25.7 1.7 25.9 11.4
2002-08-21 07:18:16 51°16.156 2°54.32 26.3 1.8 27.6 11.2
2002-08-21 07:18:21 51°16.159 2°54.321 26.7 1.9 26.7 11
2002-08-21 07:18:26 51°16.162 2°54.323 26.7 2 24.5 11.1
2002-08-21 07:18:31 51°16.164 2°54.325 25.3 2.1 22.8 11.4
2002-08-21 07:18:37 51°16.168 2°54.327 24.2 2.2 19.9 11.5
2002-08-21 07:18:41 51°16.171 2°54.328 22.8 2.3 18.1 11.7
2002-08-21 07:18:45 51°16.173 2°54.329 22.2 2.4 15.9 11.7
2002-08-21 07:18:51 51°16.177 2°54.33 21 2.4 13.8 11.7
2002-08-21 07:18:56 51°16.181 2°54.332 19.7 2.5 12.4 11.7
2002-08-21 07:19:01 51°16.185 2°54.333 18.7 2.6 12.1 11.5
2002-08-21 07:19:06 51°16.188 2°54.334 17 2.7 9 11.5
2002-08-21 07:19:11 51°16.192 2°54.335 16.8 2.7 10 11.4
2002-08-21 07:19:16 51°16.196 2°54.335 15.7 2.7 8.9 11.5
2002-08-21 07:19:21 51°16.2 2°54.336 16 2.7 6.2 11.6
2002-08-21 07:19:26 51°16.204 2°54.336 15.2 2.8 3.6 11.7
2002-08-21 07:19:31 51°16.208 2°54.336 14.5 2.8 2.9 11.6
2002-08-21 07:19:36 51°16.212 2°54.337 14 2.8 4.7 11.5
2002-08-21 07:19:41 51°16.215 2°54.338 14.5 2.7 4.5 11.6
2002-08-21 07:19:45 51°16.218 2°54.338 14 2.5 3.2 11.6
2002-08-21 07:19:51 51°16.221 2°54.338 13.5 2.2 0.5 11.7
2002-08-21 07:19:56 51°16.224 2°54.337 12.8 2 358.7 11.7
2002-08-21 07:20:01 51°16.226 2°54.337 13.3 1.7 357.3 11.7
2002-08-21 07:20:06 51°16.227 2°54.337 13.7 1.5 355.2 11.6
2002-08-21 07:20:12 51°16.229 2°54.336 13.3 1.3 353.2 11.7
2002-08-21 07:20:16 51°16.23 2°54.336 13.3 1.2 351 11.7
2002-08-21 07:20:21 51°16.232 2°54.336 14.3 1 348.8 11.7
2002-08-21 07:20:26 51°16.233 2°54.335 15.2 0.9 348.7 11.7
2002-08-21 07:20:31 51°16.234 2°54.335 15.7 0.7 350.8 11.6
2002-08-21 07:20:36 51°16.235 2°54.335 16.8 0.6 348.6 11.5
2002-08-21 07:20:41 51°16.235 2°54.335 17.3 0.5 346.2 11.5
2002-08-21 07:20:45 51°16.236 2°54.335 16.8 0.4 343.4 11.6
2002-08-21 07:20:52 51°16.236 2°54.335 18.3 0.2 343.1 11.5
2002-08-21 07:20:56 51°16.236 2°54.335 19.3 0.1 316.5 11.5
2002-08-21 07:21:01 51°16.236 2°54.335 20.3 0.1 220.9 11.6
2002-08-21 07:21:05 51°16.236 2°54.334 21.3 0.1 235.2 11.6
2002-08-21 07:21:12 51°16.235 2°54.334 22 0.2 223.3 11.6
2002-08-21 07:21:16 51°16.235 2°54.334 21.8 0.3 223.2 11.7
2002-08-21 07:21:21 51°16.234 2°54.333 22.8 0.3 213 11.7
2002-08-21 07:21:25 51°16.234 2°54.333 24 0.4 208.3 11.6
2002-08-21 07:21:31 51°16.233 2°54.333 24.5 0.5 204.2 11.4
2002-08-21 07:21:36 51°16.233 2°54.333 24.5 0.6 199.8 11.4
2002-08-21 07:21:41 51°16.232 2°54.332 24.5 0.6 201.2 11.4
2002-08-21 07:21:47 51°16.23 2°54.331 26 0.7 201.7 11.5
2002-08-21 07:21:52 51°16.229 2°54.33 26.3 0.7 201.6 11.6
2002-08-21 07:21:56 51°16.228 2°54.33 26.8 0.8 199.5 11.6
2002-08-21 07:22:01 51°16.227 2°54.329 27 0.8 201.2 11.6
2002-08-21 07:22:05 51°16.226 2°54.328 28.2 0.9 202 11.7
2002-08-21 07:22:11 51°16.224 2°54.327 29.5 1 202 11.7
2002-08-21 07:22:16 51°16.223 2°54.327 30.8 1 200.9 11.7
2002-08-21 07:22:21 51°16.222 2°54.326 31.8 1 200.4 11.6
2002-08-21 07:22:25 51°16.221 2°54.326 32.5 1 193.9 11.5
2002-08-21 07:22:31 51°16.219 2°54.326 32 1 191.6 11.4
2002-08-21 07:22:36 51°16.218 2°54.325 33.5 1 193.6 11.4
2002-08-21 07:22:41 51°16.217 2°54.324 34.3 1 194.8 11.4
2002-08-21 07:22:46 51°16.215 2°54.323 34.7 1 195.9 11.5
2002-08-21 07:22:51 51°16.214 2°54.323 35.7 1.1 194.2 11.6
2002-08-21 07:22:56 51°16.212 2°54.322 36.5 1.1 196.3 11.5
2002-08-21 07:23:01 51°16.211 2°54.321 37.5 1.2 191.6 11.3
2002-08-21 07:23:05 51°16.209 2°54.321 37.8 1.1 189.7 11.3
2002-08-21 07:23:11 51°16.208 2°54.321 38.3 1.1 187.8 11.4
2002-08-21 07:23:16 51°16.206 2°54.321 39.2 1 188.1 11.5
2002-08-21 07:23:21 51°16.205 2°54.321 38.8 0.9 179 11.6
2002-08-21 07:23:25 51°16.204 2°54.322 38.8 1 172.5 11.6
2002-08-21 07:23:32 51°16.202 2°54.322 39.2 0.9 177 11.6
2002-08-21 07:23:36 51°16.201 2°54.322 40.3 0.9 175.2 11.6
2002-08-21 07:23:41 51°16.2 2°54.321 40.8 0.9 177.6 11.5
2002-08-21 07:23:46 51°16.199 2°54.322 40.8 0.9 175.7 11.3
2002-08-21 07:23:51 51°16.198 2°54.323 39.2 0.9 167.9 11.1
2002-08-21 07:23:56 51°16.197 2°54.323 37.7 0.9 166.8 11.1
2002-08-21 07:24:01 51°16.195 2°54.323 36 0.8 167.4 11.2
2002-08-21 07:24:06 51°16.194 2°54.323 34.8 0.7 177.2 11.2
2002-08-21 07:24:11 51°16.194 2°54.323 34.3 0.7 171.7 11.2
2002-08-21 07:24:16 51°16.193 2°54.323 33.7 0.6 176.4 11.1
2002-08-21 07:24:21 51°16.192 2°54.322 32.3 0.5 186.6 11.3
2002-08-21 07:24:26 51°16.192 2°54.323 30.5 0.5 181.9 11.4
2002-08-21 07:24:31 51°16.191 2°54.323 28.2 0.5 187.7 11.7
2002-08-21 07:24:36 51°16.191 2°54.322 27.3 0.5 191.5 11.9
2002-08-21 07:24:41 51°16.19 2°54.322 26.7 0.5 193.5 11.9
2002-08-21 07:24:46 51°16.189 2°54.322 25.3 0.5 186.8 11.8
2002-08-21 07:24:51 51°16.188 2°54.321 24.8 0.5 194.6 11.8
2002-08-21 07:24:56 51°16.188 2°54.32 24.5 0.5 197.3 11.8
2002-08-21 07:25:01 51°16.187 2°54.32 24.8 0.7 186.9 11.6
2002-08-21 07:25:05 51°16.187 2°54.32 24.7 0.7 190.5 11.5
2002-08-21 07:25:11 51°16.185 2°54.32 24.8 0.7 192.1 11.7
2002-08-21 07:25:16 51°16.185 2°54.32 24.5 0.7 194.8 11.7
2002-08-21 07:25:21 51°16.184 2°54.32 24 0.7 190.3 11.8
2002-08-21 07:25:25 51°16.183 2°54.318 23.8 0.7 198.7 11.9
2002-08-21 07:25:32 51°16.182 2°54.318 24 0.7 198.3 11.9
2002-08-21 07:25:36 51°16.181 2°54.317 23 0.7 199.9 11.8
2002-08-21 07:25:41 51°16.18 2°54.317 22.5 0.7 193.2 11.8
2002-08-21 07:25:46 51°16.179 2°54.316 21.7 0.8 190.4 11.6
2002-08-21 07:25:51 51°16.178 2°54.316 22 0.9 190.2 11.4
2002-08-21 07:25:56 51°16.177 2°54.315 22.5 0.9 197 11.3
2002-08-21 07:26:01 51°16.176 2°54.315 23.8 0.9 195.6 11.3
2002-08-21 07:26:05 51°16.175 2°54.314 24.2 0.9 194.6 11.3
2002-08-21 07:26:11 51°16.173 2°54.314 24.2 0.9 193 11.4
2002-08-21 07:26:16 51°16.172 2°54.313 24.2 0.9 199.5 11.5
2002-08-21 07:26:21 51°16.171 2°54.312 24 0.8 200.8 11.6
2002-08-21 07:26:25 51°16.171 2°54.312 23.5 0.7 201.4 11.7
2002-08-21 07:26:32 51°16.169 2°54.311 22.8 0.7 200.6 11.7
2002-08-21 07:26:37 51°16.168 2°54.31 22.3 0.7 200.7 11.7
2002-08-21 07:26:41 51°16.168 2°54.31 21 0.7 207.5 11.7
2002-08-21 07:26:45 51°16.167 2°54.309 20.7 0.6 207.8 11.7
2002-08-21 07:26:51 51°16.166 2°54.309 19.7 0.6 205.8 11.7
2002-08-21 07:26:56 51°16.165 2°54.308 18 0.6 199.7 11.6
2002-08-21 07:27:01 51°16.164 2°54.308 17.2 0.6 202.5 11.6
2002-08-21 07:27:07 51°16.163 2°54.307 16.2 0.7 196.3 11.4
2002-08-21 07:27:11 51°16.162 2°54.306 16.2 0.8 199.5 11.3
2002-08-21 07:27:17 51°16.161 2°54.306 17.2 0.8 201.3 11.4
2002-08-21 07:27:21 51°16.161 2°54.305 17.2 0.8 205.8 11.5
2002-08-21 07:27:26 51°16.16 2°54.304 16 0.7 205.6 11.5
2002-08-21 07:27:31 51°16.159 2°54.303 15.2 0.7 208.6 11.5
2002-08-21 07:27:36 51°16.158 2°54.303 13.5 0.7 205.5 11.5
2002-08-21 07:27:41 51°16.157 2°54.302 12.5 0.7 213.7 11.5
2002-08-21 07:27:45 51°16.156 2°54.301 11.8 0.7 213 11.6
2002-08-21 07:27:51 51°16.155 2°54.3 10.8 0.7 214.7 11.6
2002-08-21 07:27:56 51°16.154 2°54.299 9.8 0.8 208.2 11.5
2002-08-21 07:28:01 51°16.153 2°54.298 9.5 0.8 207.1 11.5
2002-08-21 07:28:05 51°16.152 2°54.297 9.8 0.8 209.8 11.5
2002-08-21 07:28:11 51°16.151 2°54.296 9.7 0.8 212.9 11.6
2002-08-21 07:28:16 51°16.15 2°54.295 8.8 0.7 213.7 11.6
2002-08-21 07:28:21 51°16.15 2°54.294 7.7 0.7 221.5 11.7
2002-08-21 07:28:25 51°16.149 2°54.293 6.7 0.6 225.5 11.7
2002-08-21 07:28:31 51°16.149 2°54.292 5.5 0.6 229.1 11.7
2002-08-21 07:28:36 51°16.149 2°54.291 4.2 0.6 231.3 11.7
2002-08-21 07:28:41 51°16.148 2°54.29 3 0.6 236.4 11.7
2002-08-21 07:28:46 51°16.148 2°54.289 2 0.6 236.2 11.6
2002-08-21 07:28:51 51°16.147 2°54.288 0.3 0.6 240.7 11.6
2002-08-21 07:28:56 51°16.147 2°54.287 358.8 0.6 240 11.5
2002-08-21 07:29:01 51°16.146 2°54.286 358.2 0.6 238.6 11.5
2002-08-21 07:29:06 51°16.146 2°54.285 357.3 0.6 237.1 11.4
2002-08-21 07:29:11 51°16.146 2°54.284 356.3 0.7 232.7 11.4
2002-08-21 07:29:16 51°16.145 2°54.282 355 0.7 237.8 11.4
2002-08-21 07:29:21 51°16.145 2°54.281 354.2 0.7 243.5 11.4
2002-08-21 07:29:25 51°16.145 2°54.28 353.5 0.7 250 11.5
2002-08-21 07:29:31 51°16.145 2°54.278 353.7 0.7 253.6 11.5
2002-08-21 07:29:36 51°16.145 2°54.276 353.8 0.7 257.8 11.6
2002-08-21 07:29:41 51°16.144 2°54.275 354.5 0.7 259.9 11.6
2002-08-21 07:29:46 51°16.145 2°54.273 355 0.7 262.6 11.7
2002-08-21 07:29:51 51°16.145 2°54.272 355 0.7 270.3 11.7
2002-08-21 07:29:57 51°16.145 2°54.27 355.2 0.7 275.5 11.6
2002-08-21 07:30:01 51°16.144 2°54.269 355.8 0.7 268.3 11.5
2002-08-21 07:30:05 51°16.144 2°54.267 357 0.6 266.2 11.4
2002-08-21 07:30:12 51°16.144 2°54.265 357.7 0.7 266.7 11.5
2002-08-21 07:30:16 51°16.144 2°54.264 358.2 0.6 268.9 11.4
2002-08-21 07:30:21 51°16.144 2°54.264 358.7 0.5 269.2 11.3
2002-08-21 07:30:25 51°16.144 2°54.262 359.5 0.5 273.3 11.3
2002-08-21 07:30:32 51°16.145 2°54.26 0.5 0.5 280.3 11.4
2002-08-21 07:30:36 51°16.145 2°54.259 1 0.4 279.9 11.5
2002-08-21 07:30:41 51°16.145 2°54.258 2.5 0.4 279.1 11.5
2002-08-21 07:30:46 51°16.145 2°54.257 3.5 0.4 276.2 11.6
2002-08-21 07:30:51 51°16.145 2°54.256 4.8 0.4 279.5 11.7
2002-08-21 07:30:56 51°16.146 2°54.255 5.3 0.5 286.5 11.8
2002-08-21 07:31:01 51°16.146 2°54.254 5.2 0.6 301.3 11.8
2002-08-21 07:31:05 51°16.146 2°54.254 5.3 0.6 305 11.9
2002-08-21 07:31:11 51°16.147 2°54.253 6 0.4 304.1 11.8
2002-08-21 07:31:16 51°16.147 2°54.251 8 0.3 316.2 11.5
2002-08-21 07:31:21 51°16.147 2°54.251 9.8 0.1 274.8 11.2
2002-08-21 07:31:26 51°16.147 2°54.25 12.2 0.2 270 11
2002-08-21 07:31:31 51°16.148 2°54.25 15.7 0.1 298.3 11.2
2002-08-21 07:31:37 51°16.148 2°54.25 17.8 0.2 314.5 11.4
2002-08-21 07:31:41 51°16.148 2°54.25 20 0.3 347.9 11.7
2002-08-21 07:31:46 51°16.148 2°54.25 20 0.3 2.9 11.8
2002-08-21 07:31:52 51°16.149 2°54.251 21 0.4 3.1 11.9
2002-08-21 07:31:56 51°16.15 2°54.251 21.2 0.4 8 12
2002-08-21 07:32:01 51°16.15 2°54.251 21.8 0.5 17.8 11.9
2002-08-21 07:32:05 51°16.151 2°54.251 22 0.5 24.2 11.7
2002-08-21 07:32:11 51°16.151 2°54.252 22.5 0.6 25.9 11.5
2002-08-21 07:32:16 51°16.152 2°54.253 22.2 0.6 30.7 11.3
2002-08-21 07:32:21 51°16.153 2°54.253 21.8 0.6 20.6 11.4
2002-08-21 07:32:27 51°16.154 2°54.255 22.5 0.6 18.2 11.4
2002-08-21 07:32:32 51°16.155 2°54.255 22.5 0.7 21.3 11.4
2002-08-21 07:32:36 51°16.156 2°54.255 22 0.8 14.6 11.5
2002-08-21 07:32:41 51°16.158 2°54.255 21.5 0.9 13.9 11.7
2002-08-21 07:32:46 51°16.159 2°54.255 20.5 0.9 16.4 11.7
2002-08-21 07:32:51 51°16.161 2°54.256 20.8 0.9 21.6 11.6
2002-08-21 07:32:56 51°16.161 2°54.257 20.5 0.8 20.3 11.5
2002-08-21 07:33:01 51°16.162 2°54.258 20.3 0.8 17 11.5
2002-08-21 07:33:05 51°16.163 2°54.258 20 0.9 15.7 11.7
2002-08-21 07:33:12 51°16.165 2°54.259 19.3 0.9 11.2 11.8
2002-08-21 07:33:16 51°16.166 2°54.259 19.7 1 12.4 11.9
2002-08-21 07:33:21 51°16.167 2°54.26 20 1 10.8 11.9
2002-08-21 07:33:26 51°16.169 2°54.26 20.2 1 10.6 11.9
2002-08-21 07:33:32 51°16.17 2°54.261 20.3 1 12.3 11.9
2002-08-21 07:33:36 51°16.172 2°54.261 20.2 1.1 12.3 11.8
2002-08-21 07:33:41 51°16.173 2°54.261 20.7 1.2 12.7 11.8
2002-08-21 07:33:46 51°16.174 2°54.261 20.3 1.2 11.1 11.8
2002-08-21 07:33:52 51°16.176 2°54.261 20.3 1.2 8.8 11.8
2002-08-21 07:33:56 51°16.177 2°54.261 20.5 1.1 9.1 11.6
2002-08-21 07:34:01 51°16.178 2°54.262 21 1 9.7 11.5
2002-08-21 07:34:06 51°16.179 2°54.262 21.5 0.8 14.3 11.5
2002-08-21 07:34:11 51°16.18 2°54.262 21.8 0.7 13.1 11.5
2002-08-21 07:34:16 51°16.18 2°54.263 22 0.5 20.2 11.5
2002-08-21 07:34:21 51°16.181 2°54.263 22.8 0.5 24.3 11.5
2002-08-21 07:34:25 51°16.181 2°54.264 24 0.4 33.7 11.6
2002-08-21 07:34:32 51°16.182 2°54.264 23.8 0.4 33.2 11.6
2002-08-21 07:34:36 51°16.182 2°54.266 23.8 0.4 35.6 11.6
2002-08-21 07:34:41 51°16.183 2°54.266 24.2 0.3 38.2 11.6
2002-08-21 07:34:45 51°16.183 2°54.266 24.2 0.2 62.1 11.6
2002-08-21 07:34:51 51°16.183 2°54.266 25.2 0.1 101 11.7
2002-08-21 07:34:56 51°16.182 2°54.267 26.8 0.1 130.7 11.7
2002-08-21 07:35:01 51°16.182 2°54.267 27.7 0.2 136.7 11.6
2002-08-21 07:35:05 51°16.182 2°54.268 28.2 0.3 125.7 11.5
2002-08-21 07:35:12 51°16.182 2°54.269 28.3 0.4 129.4 11.5
2002-08-21 07:35:16 51°16.182 2°54.269 29.3 0.2 155.7 11.5
2002-08-21 07:35:21 51°16.181 2°54.269 30.2 0.3 157.2 11.6
2002-08-21 07:35:27 51°16.18 2°54.27 31.8 0.5 156.3 11.7
2002-08-21 07:35:32 51°16.179 2°54.271 33.8 0.7 164 11.3
2002-08-21 07:35:36 51°16.178 2°54.27 37 0.8 168.6 10.7
2002-08-21 07:35:41 51°16.176 2°54.271 39.3 1.1 170 10.2
2002-08-21 07:35:46 51°16.175 2°54.271 40 1 174.1 10.3
2002-08-21 07:35:51 51°16.174 2°54.272 39.5 1 173.5 10.9
2002-08-21 07:35:56 51°16.173 2°54.271 39.3 1 182.4 11.4
2002-08-21 07:36:01 51°16.171 2°54.271 39.5 1.1 180.9 11.8
2002-08-21 07:36:06 51°16.169 2°54.271 39.8 1 187.1 12.1
2002-08-21 07:36:11 51°16.168 2°54.271 39.3 1 182.9 12.1
2002-08-21 07:36:16 51°16.167 2°54.271 39 1 185.5 12.2
2002-08-21 07:36:21 51°16.165 2°54.271 38.7 1 180.9 12.1
2002-08-21 07:36:26 51°16.164 2°54.272 38 0.9 180.1 12.2
2002-08-21 07:36:32 51°16.163 2°54.272 36.8 0.9 181.2 12.2
2002-08-21 07:36:37 51°16.161 2°54.272 37.5 0.9 183.5 12.2
2002-08-21 07:36:41 51°16.161 2°54.271 37 0.8 182.5 12.1
2002-08-21 07:36:45 51°16.16 2°54.272 35.7 0.7 180.9 12.1
2002-08-21 07:36:51 51°16.159 2°54.271 34 0.7 179.7 12.1
2002-08-21 07:36:56 51°16.158 2°54.272 33.2 0.7 177.4 11.9
2002-08-21 07:37:01 51°16.157 2°54.272 32.2 0.6 172 11.8
2002-08-21 07:37:06 51°16.157 2°54.272 31.3 0.6 171.9 11.7
2002-08-21 07:37:12 51°16.156 2°54.272 29.7 0.5 174.3 11.6
2002-08-21 07:37:16 51°16.155 2°54.272 28 0.5 176.9 11.7
2002-08-21 07:37:21 51°16.155 2°54.272 26.8 0.4 177.9 11.7
2002-08-21 07:37:26 51°16.154 2°54.272 25.2 0.3 191.7 11.8
2002-08-21 07:37:31 51°16.154 2°54.271 24.3 0.3 200.7 11.6
2002-08-21 07:37:37 51°16.153 2°54.271 22.3 0.3 198.7 11.4
2002-08-21 07:37:41 51°16.153 2°54.27 19.8 0.3 206.8 11.4
2002-08-21 07:37:45 51°16.152 2°54.27 18 0.3 213.4 11.4
2002-08-21 07:37:51 51°16.152 2°54.27 16.5 0.2 224.9 11.5
2002-08-21 07:37:56 51°16.152 2°54.27 16 0.1 217.2 11.6
2002-08-21 07:38:01 51°16.152 2°54.269 15.2 0.2 250.6 11.6
2002-08-21 07:38:06 51°16.152 2°54.269 15.3 0.1 243.2 11.5
2002-08-21 07:38:11 51°16.152 2°54.269 15.5 0.1 264 11.6
2002-08-21 07:38:16 51°16.153 2°54.268 16.2 0.1 282.5 11.7
2002-08-21 07:38:21 51°16.153 2°54.268 17.3 0.1 311.5 11.8
2002-08-21 07:38:27 51°16.153 2°54.268 17.3 0.1 307 11.9
2002-08-21 07:38:32 51°16.153 2°54.268 17.5 0.2 314.6 11.9
2002-08-21 07:38:36 51°16.154 2°54.268 17.7 0.2 324.3 11.9
2002-08-21 07:38:41 51°16.154 2°54.267 17.8 0.2 331.8 11.7
2002-08-21 07:38:45 51°16.154 2°54.268 18 0.2 3.4 11.4
2002-08-21 07:38:51 51°16.154 2°54.268 19.2 0.2 32.5 11.2
2002-08-21 07:38:56 51°16.154 2°54.268 19.7 0.1 14.4 11.3
2002-08-21 07:39:01 51°16.154 2°54.268 20 0.1 21.8 11.5
2002-08-21 07:39:05 51°16.154 2°54.268 20.8 0.1 46.3 11.6
2002-08-21 07:39:12 51°16.154 2°54.269 21.7 0.1 48.6 11.6
2002-08-21 07:39:16 51°16.155 2°54.27 22.5 0.2 46 11.7
2002-08-21 07:39:21 51°16.155 2°54.27 22.8 0.2 46.5 11.7
2002-08-21 07:39:26 51°16.155 2°54.271 23 0.2 84.4 11.6
2002-08-21 07:39:31 51°16.154 2°54.271 25 0.3 110.9 11.5
2002-08-21 07:39:37 51°16.154 2°54.271 25.7 0.2 117.4 11.5
2002-08-21 07:39:41 51°16.155 2°54.272 25.5 0.2 98.1 11.6
2002-08-21 07:39:45 51°16.155 2°54.272 24.7 0.2 63.2 11.7
2002-08-21 07:39:51 51°16.155 2°54.273 24 0.3 56.7 11.8
2002-08-21 07:39:56 51°16.155 2°54.274 24.2 0.3 76.5 11.6
2002-08-21 07:40:01 51°16.155 2°54.274 24.5 0.3 73.3 11.5
2002-08-21 07:40:05 51°16.155 2°54.274 24.8 0.3 68.1 11.5
2002-08-21 07:40:12 51°16.155 2°54.274 25.2 0.2 48.8 11.6
2002-08-21 07:40:16 51°16.155 2°54.275 25 0.3 44.2 11.7
2002-08-21 07:40:21 51°16.156 2°54.275 24.8 0.3 43.7 11.8
2002-08-21 07:40:26 51°16.156 2°54.276 25.2 0.3 43.8 11.8
2002-08-21 07:40:32 51°16.157 2°54.276 24.7 0.4 31.4 11.8
2002-08-21 07:40:37 51°16.157 2°54.277 24.8 0.4 32.9 11.8
2002-08-21 07:40:41 51°16.157 2°54.278 24.5 0.5 46.1 11.6
2002-08-21 07:40:45 51°16.158 2°54.279 24.7 0.6 49 11.5
2002-08-21 07:40:51 51°16.158 2°54.28 25.3 0.6 43.3 11.5
2002-08-21 07:40:56 51°16.159 2°54.281 25.7 0.6 47.4 11.6
2002-08-21 07:41:01 51°16.16 2°54.282 25.8 0.6 50.7 11.7
2002-08-21 07:41:07 51°16.161 2°54.283 26.5 0.7 45.9 11.7
2002-08-21 07:41:12 51°16.162 2°54.285 26.2 1.1 36.5 11.6
2002-08-21 07:41:16 51°16.164 2°54.287 25 1.5 33 11.5
2002-08-21 07:41:21 51°16.167 2°54.289 23.7 2.1 24.7 11.5
2002-08-21 07:41:26 51°16.171 2°54.291 21.3 2.4 22.8 11.5
2002-08-21 07:41:31 51°16.175 2°54.293 19.2 3 19.5 11.5
2002-08-21 07:41:36 51°16.181 2°54.295 17 3.7 15.6 11.5
2002-08-21 07:41:41 51°16.188 2°54.296 12.5 4.5 8.8 11.7
2002-08-21 07:41:45 51°16.194 2°54.295 6.8 5.2 1.9 11.8
2002-08-21 07:41:51 51°16.203 2°54.293 1.5 5.8 354.9 11.9
2002-08-21 07:41:56 51°16.212 2°54.289 355.2 6.2 349.1 11.9
2002-08-21 07:42:01 51°16.221 2°54.283 349.3 6.7 341.5 12
2002-08-21 07:42:05 51°16.228 2°54.277 343.2 7.1 336.1 12
2002-08-21 07:42:12 51°16.241 2°54.263 336.7 7.6 328.2 11.9
2002-08-21 07:42:17 51°16.249 2°54.249 330 8 323.1 11.9
2002-08-21 07:42:21 51°16.256 2°54.237 325.3 8.8 314.6 11.8
2002-08-21 07:42:26 51°16.265 2°54.221 323.5 9.4 311.8 11.9
2002-08-21 07:42:31 51°16.273 2°54.203 321 9.9 309.7 11.8
2002-08-21 07:42:36 51°16.283 2°54.185 321.2 10.3 309 11.8
2002-08-21 07:42:41 51°16.292 2°54.166 320.2 10.7 308.1 11.8
2002-08-21 07:42:47 51°16.304 2°54.143 319.5 10.9 308.6 11.8
2002-08-21 07:42:52 51°16.314 2°54.123 320 11.4 309.6 11.9
2002-08-21 07:42:56 51°16.323 2°54.108 319.8 11.7 310.4 12
2002-08-21 07:43:01 51°16.334 2°54.087 320 12 310.7 11.9
2002-08-21 07:43:06 51°16.345 2°54.067 320 12 310.9 12
2002-08-21 07:43:12 51°16.358 2°54.042 318.8 12.1 310.6 11.9
2002-08-21 07:43:16 51°16.366 2°54.026 318.7 12.1 310 12
2002-08-21 07:43:21 51°16.376 2°54.004 317 12.2 307.9 11.9
2002-08-21 07:43:27 51°16.389 2°53.978 317.5 12.2 306.8 12
2002-08-21 07:43:31 51°16.397 2°53.961 318.5 12.2 308 12.1
2002-08-21 07:43:36 51°16.408 2°53.939 317.5 12.4 307.8 12.1
2002-08-21 07:43:41 51°16.418 2°53.917 317.8 12.6 307.4 12.1
2002-08-21 07:43:45 51°16.427 2°53.9 317.3 12.4 306.8 12.2
2002-08-21 07:43:51 51°16.439 2°53.874 319 12.3 308 12.2
2002-08-21 07:43:56 51°16.45 2°53.852 317.8 12.3 308.6 12.2
2002-08-21 07:44:01 51°16.461 2°53.831 319.3 12.4 308.9 12.2
2002-08-21 07:44:05 51°16.47 2°53.814 318.3 12.5 309.3 12.2
2002-08-21 07:44:11 51°16.483 2°53.787 318.2 12.7 308.6 12.2
2002-08-21 07:44:16 51°16.494 2°53.765 318.3 12.8 309.2 12.2
2002-08-21 07:44:21 51°16.505 2°53.742 318 13 308.3 12.2
2002-08-21 07:44:27 51°16.519 2°53.716 318.7 13 309.1 12.3
2002-08-21 07:44:32 51°16.531 2°53.694 318.3 13 308.7 12.3
2002-08-21 07:44:36 51°16.54 2°53.676 319 13 309.6 12.2
2002-08-21 07:44:41 51°16.551 2°53.653 318.8 13.1 309.2 12.2
2002-08-21 07:44:45 51°16.561 2°53.635 318.8 13.2 309.5 12.1
2002-08-21 07:44:52 51°16.577 2°53.604 318.3 13.1 308.8 12.1
2002-08-21 07:44:56 51°16.586 2°53.586 318.3 13.1 308.5 12.1
2002-08-21 07:45:01 51°16.597 2°53.563 318.5 13.1 309.4 12
2002-08-21 07:45:06 51°16.609 2°53.541 318.3 13.1 309.3 12
2002-08-21 07:45:12 51°16.623 2°53.514 318.2 13.1 310.1 11.9
2002-08-21 07:45:16 51°16.632 2°53.496 318.2 13.2 309.5 11.9
2002-08-21 07:45:21 51°16.645 2°53.475 318.5 13.2 310 11.9
2002-08-21 07:45:26 51°16.656 2°53.452 318 13.2 309.6 11.9
2002-08-21 07:45:32 51°16.67 2°53.426 318.2 13.2 310.1 11.8
2002-08-21 07:45:36 51°16.68 2°53.408 318.3 13.2 310.1 11.6
2002-08-21 07:45:41 51°16.691 2°53.386 318.3 13.1 309.7 11.5
2002-08-21 07:45:45 51°16.701 2°53.369 317.8 12.9 309.7 11.5
2002-08-21 07:45:51 51°16.714 2°53.343 317.8 12.9 310 11.4
2002-08-21 07:45:56 51°16.726 2°53.32 318.3 13 310 11.4
2002-08-21 07:46:01 51°16.737 2°53.298 318.5 12.9 310 11.4
2002-08-21 07:46:06 51°16.749 2°53.276 318 12.9 310 11.3
2002-08-21 07:46:11 51°16.76 2°53.254 317.8 13 310.1 11.2
2002-08-21 07:46:16 51°16.772 2°53.233 318.2 13 310.7 11.3
2002-08-21 07:46:21 51°16.783 2°53.211 318 12.8 310.1 11.1
2002-08-21 07:46:26 51°16.795 2°53.191 318.7 12.5 311.6 11.2
2002-08-21 07:46:31 51°16.806 2°53.169 318 12.5 310.4 10.8
2002-08-21 07:46:36 51°16.818 2°53.148 320.3 12.6 311.3 10.5
2002-08-21 07:46:41 51°16.83 2°53.128 319.5 12.4 312.7 10.2
2002-08-21 07:46:46 51°16.841 2°53.107 319.3 12.5 311.8 9.5
2002-08-21 07:46:51 51°16.853 2°53.088 319.2 12.5 313 8.9
2002-08-21 07:46:57 51°16.867 2°53.062 318.5 12.6 311.6 8.7
2002-08-21 07:47:01 51°16.877 2°53.046 318.8 12.7 311.9 8.5
2002-08-21 07:47:06 51°16.887 2°53.024 317.7 12.6 310.2 8.5
2002-08-21 07:47:11 51°16.899 2°53.004 319.8 12.4 311.8 8.5
2002-08-21 07:47:16 51°16.91 2°52.983 318 12.4 311.2 8.4
2002-08-21 07:47:21 51°16.923 2°52.962 319.5 12.7 312.1 8.5
2002-08-21 07:47:27 51°16.936 2°52.936 318.7 12.7 311.5 8.8
2002-08-21 07:47:32 51°16.948 2°52.915 318.7 12.7 311.5 9
2002-08-21 07:47:36 51°16.957 2°52.897 318.2 12.8 310.8 9.1
2002-08-21 07:47:41 51°16.969 2°52.876 318 12.9 310.8 9
2002-08-21 07:47:46 51°16.98 2°52.854 318 12.9 309.9 9.4
2002-08-21 07:47:51 51°16.992 2°52.833 317.8 12.8 310.1 9.9
2002-08-21 07:47:56 51°17.003 2°52.811 318.3 12.9 310 9.9
2002-08-21 07:48:02 51°17.017 2°52.785 318.3 12.9 310.8 9.8
2002-08-21 07:48:07 51°17.029 2°52.764 319.2 12.9 310.5 9.8
2002-08-21 07:48:11 51°17.038 2°52.746 317.2 12.9 310.6 9.9
2002-08-21 07:48:16 51°17.05 2°52.724 319 13 309.8 10.1
2002-08-21 07:48:21 51°17.062 2°52.703 318.3 12.9 311.4 10.4
2002-08-21 07:48:26 51°17.073 2°52.68 318 13.1 310 10
2002-08-21 07:48:31 51°17.086 2°52.659 318 13 311.9 9.6
2002-08-21 07:48:36 51°17.096 2°52.637 317 12.8 309.7 9.7
2002-08-21 07:48:41 51°17.108 2°52.616 319 12.5 311.1 9.7
2002-08-21 07:48:46 51°17.119 2°52.595 318 12.4 310.7 9.7
2002-08-21 07:48:51 51°17.131 2°52.574 318.8 12.5 310.7 9.6
2002-08-21 07:48:56 51°17.141 2°52.553 318.3 12.4 309.8 9.7
2002-08-21 07:49:01 51°17.152 2°52.532 317.5 12.4 309.8 9.9
2002-08-21 07:49:06 51°17.164 2°52.511 318.5 12.4 310.4 9.9
2002-08-21 07:49:11 51°17.175 2°52.49 318.2 12.6 310.5 9.7
2002-08-21 07:49:16 51°17.187 2°52.469 318.8 12.8 310.1 10.2
2002-08-21 07:49:21 51°17.199 2°52.448 318.5 12.8 311.1 9.9
2002-08-21 07:49:25 51°17.208 2°52.43 319.2 12.9 311.2 10.3
2002-08-21 07:49:32 51°17.225 2°52.4 319 13 311.1 10.2
2002-08-21 07:49:36 51°17.235 2°52.383 318.5 13 311 10.5
2002-08-21 07:49:41 51°17.247 2°52.361 318.2 13.1 311.2 10.1
2002-08-21 07:49:45 51°17.256 2°52.343 318 13.2 310.6 10.6
2002-08-21 07:49:51 51°17.27 2°52.317 318.3 13.1 310.3 10.5
2002-08-21 07:49:56 51°17.282 2°52.294 317.7 13.1 310.1 10.2
2002-08-21 07:50:01 51°17.293 2°52.272 318.2 13.1 309.9 10.5
2002-08-21 07:50:05 51°17.303 2°52.255 318 13.1 310.8 10.6
2002-08-21 07:50:11 51°17.317 2°52.228 318.5 13.1 310.9 10.2
2002-08-21 07:50:16 51°17.33 2°52.207 319 13.2 311.8 10.5
2002-08-21 07:50:21 51°17.341 2°52.184 317.7 13.3 310.5 10.3
2002-08-21 07:50:27 51°17.355 2°52.157 317.2 13.3 309.9 10.7
2002-08-21 07:50:31 51°17.365 2°52.139 318 13.3 310 10.4
2002-08-21 07:50:36 51°17.378 2°52.117 319 13.3 310.9 10.8
2002-08-21 07:50:41 51°17.39 2°52.095 319.2 13.4 311.9 10.7
2002-08-21 07:50:45 51°17.4 2°52.078 319.8 13.4 312.2 10.5
2002-08-21 07:50:51 51°17.415 2°52.052 319.8 13.4 312.4 10.7
2002-08-21 07:50:56 51°17.428 2°52.031 320.2 13.3 312.8 10.7
2002-08-21 07:51:01 51°17.44 2°52.009 321 13.3 312.8 10.8
2002-08-21 07:51:05 51°17.451 2°51.993 319.8 13.3 313.2 10.6
2002-08-21 07:51:11 51°17.466 2°51.967 321.5 13.3 313.2 10.6
2002-08-21 07:51:16 51°17.479 2°51.947 323.5 13.2 314.9 10.6
2002-08-21 07:51:21 51°17.492 2°51.926 322.5 13.1 314.9 10.3
2002-08-21 07:51:27 51°17.508 2°51.903 323.7 13.1 315.5 10.6
2002-08-21 07:51:32 51°17.521 2°51.883 324.2 13 316.3 10.7
2002-08-21 07:51:37 51°17.534 2°51.864 324.2 13 316 10.5
2002-08-21 07:51:41 51°17.544 2°51.848 323.8 12.8 316.9 10.2
2002-08-21 07:51:46 51°17.557 2°51.829 326.5 12.8 316.9 10.2
2002-08-21 07:51:51 51°17.571 2°51.812 326.7 12.8 319.4 10.4
2002-08-21 07:51:56 51°17.584 2°51.792 326.3 12.9 318.5 10.5
2002-08-21 07:52:01 51°17.599 2°51.775 328.3 12.8 320.9 10.4
2002-08-21 07:52:06 51°17.612 2°51.756 327.5 12.9 320.4 9.8
2002-08-21 07:52:12 51°17.629 2°51.736 329 12.9 321.4 10.3
2002-08-21 07:52:16 51°17.64 2°51.72 327 13 320.8 10.3
2002-08-21 07:52:21 51°17.655 2°51.702 328.7 13 321.3 9.9
2002-08-21 07:52:25 51°17.665 2°51.687 327.2 13 320.5 10.3
2002-08-21 07:52:31 51°17.682 2°51.666 328.7 13.1 320.8 10.2
2002-08-21 07:52:36 51°17.696 2°51.648 329.2 13 321.3 10
2002-08-21 07:52:41 51°17.711 2°51.63 329 13 321.9 9.9
2002-08-21 07:52:45 51°17.722 2°51.616 328.8 13 321.7 10.1
2002-08-21 07:52:51 51°17.739 2°51.594 328.5 12.9 321.4 10.3
2002-08-21 07:52:56 51°17.752 2°51.576 328.2 12.8 320.6 10.2
2002-08-21 07:53:01 51°17.766 2°51.559 328.7 12.7 320.7 10.2
2002-08-21 07:53:07 51°17.781 2°51.538 329 12.5 320.8 10.2
2002-08-21 07:53:12 51°17.795 2°51.52 328.2 12.3 320.2 10.4
2002-08-21 07:53:16 51°17.805 2°51.507 328.3 12.2 320.8 10.3
2002-08-21 07:53:21 51°17.818 2°51.49 329 12.2 321 10.2
2002-08-21 07:53:26 51°17.832 2°51.473 328.8 12.3 321.9 10.4
2002-08-21 07:53:32 51°17.848 2°51.452 329.2 12.4 321.7 10.5
2002-08-21 07:53:36 51°17.859 2°51.439 329 12.4 321.7 10.4
2002-08-21 07:53:41 51°17.872 2°51.422 329.3 12.5 321.6 10.5
2002-08-21 07:53:46 51°17.886 2°51.404 329 12.7 321.9 10.7
2002-08-21 07:53:52 51°17.904 2°51.383 329.8 12.9 322.2 10.8
2002-08-21 07:53:56 51°17.915 2°51.369 329.8 12.9 322.8 10.8
2002-08-21 07:54:01 51°17.929 2°51.351 329.7 13 322.3 10.7
2002-08-21 07:54:07 51°17.946 2°51.33 329.8 13.1 322.8 11
2002-08-21 07:54:11 51°17.958 2°51.316 329.8 13.1 322.4 11
2002-08-21 07:54:16 51°17.973 2°51.298 329.8 13.2 322.7 11.2
2002-08-21 07:54:21 51°17.987 2°51.28 329.7 13.2 322.4 11.5
2002-08-21 07:54:25 51°17.998 2°51.265 330.3 13.1 321.8 11.6
2002-08-21 07:54:31 51°18.015 2°51.244 329.8 13 322.2 11.3
2002-08-21 07:54:36 51°18.03 2°51.226 330.2 13.1 322.5 11.8
2002-08-21 07:54:41 51°18.044 2°51.21 331.3 13 323.6 11.9
2002-08-21 07:54:45 51°18.056 2°51.197 333.7 13 324.7 12.1
2002-08-21 07:54:52 51°18.078 2°51.177 336 12.9 328.3 12.2
2002-08-21 07:54:56 51°18.09 2°51.165 336.7 12.9 328.5 12.3
2002-08-21 07:55:01 51°18.106 2°51.152 338.5 13 331.2 12.3
2002-08-21 07:55:05 51°18.119 2°51.141 340.8 13 331.6 12.6
2002-08-21 07:55:12 51°18.142 2°51.125 342.8 12.9 335.2 12.5
2002-08-21 07:55:16 51°18.156 2°51.117 344.3 12.9 336.6 12.6
2002-08-21 07:55:21 51°18.172 2°51.108 347 12.7 339.5 12.7
2002-08-21 07:55:25 51°18.185 2°51.102 349 12.2 341.4 12.8
2002-08-21 07:55:31 51°18.203 2°51.092 348.3 11.7 341.5 12.9
2002-08-21 07:55:36 51°18.218 2°51.084 348.8 11.4 341.3 13.1
2002-08-21 07:55:41 51°18.232 2°51.075 347.2 11 340.8 13.1
2002-08-21 07:55:46 51°18.246 2°51.068 348.5 10.8 340.7 13.1
2002-08-21 07:55:51 51°18.259 2°51.06 349.3 10.6 341.3 13.2
2002-08-21 07:55:56 51°18.273 2°51.053 349.5 10.4 341.7 13.3
2002-08-21 07:56:01 51°18.286 2°51.047 349.7 10 341.9 13.4
2002-08-21 07:56:05 51°18.295 2°51.042 349.3 9.2 342.4 -999
2002-08-21 07:56:11 51°18.307 2°51.035 350.3 8.2 342 13.3
2002-08-21 07:56:16 51°18.316 2°51.031 352 7.3 342.9 13.3
2002-08-21 07:56:21 51°18.324 2°51.027 352.3 6.3 343.1 13
2002-08-21 07:56:27 51°18.33 2°51.024 353.5 5 344.2 13.1
2002-08-21 07:56:32 51°18.335 2°51.021 354.3 4 342.9 13.1
2002-08-21 07:56:36 51°18.338 2°51.019 354.2 3.5 340.5 13.2
2002-08-21 07:56:41 51°18.342 2°51.017 354.2 3.2 339.5 13.5
2002-08-21 07:56:45 51°18.345 2°51.015 354.2 2.8 338.6 13.8
2002-08-21 07:56:52 51°18.349 2°51.011 353.3 2.7 337.9 13.8
2002-08-21 07:56:57 51°18.353 2°51.009 352.8 2.7 335.7 14
2002-08-21 07:57:01 51°18.356 2°51.006 352 2.8 333.8 14
2002-08-21 07:57:05 51°18.358 2°51.004 351.2 2.8 333 14.2
2002-08-21 07:57:11 51°18.362 2°51 350.3 2.9 332 14.2
2002-08-21 07:57:16 51°18.366 2°50.997 350.7 2.9 332.5 14.1
2002-08-21 07:57:21 51°18.369 2°50.995 352.2 2.8 334.3 14.2
2002-08-21 07:57:25 51°18.372 2°50.993 353.5 2.7 334.2 14
2002-08-21 07:57:31 51°18.376 2°50.99 354.5 2.6 336.6 13.7
2002-08-21 07:57:36 51°18.379 2°50.988 357.3 2.5 339.4 13.6
2002-08-21 07:57:41 51°18.382 2°50.987 1.2 2.3 343 13.7
2002-08-21 07:57:47 51°18.386 2°50.985 2.7 2.3 343.6 13.7
2002-08-21 07:57:52 51°18.39 2°50.985 5.7 2.3 349.2 13.8
2002-08-21 07:57:56 51°18.392 2°50.985 8.7 2.3 352.4 14.1
2002-08-21 07:58:01 51°18.395 2°50.985 12.2 2.3 359.1 14.1
2002-08-21 07:58:06 51°18.399 2°50.985 15 2.3 4.3 14.1
2002-08-21 07:58:11 51°18.402 2°50.987 18.2 2.3 10.9 14
2002-08-21 07:58:16 51°18.405 2°50.988 19.8 2.4 13 13.9
2002-08-21 07:58:21 51°18.409 2°50.99 22 2.5 17.7 14
2002-08-21 07:58:27 51°18.413 2°50.993 23.7 2.5 19.6 14.1
2002-08-21 07:58:32 51°18.416 2°50.995 23.7 2.5 21.6 14
2002-08-21 07:58:37 51°18.419 2°50.997 24 2.5 22.1 14.1
2002-08-21 07:58:41 51°18.421 2°50.999 24.8 2.4 26.6 13.9
2002-08-21 07:58:45 51°18.423 2°51 25 2.2 26.3 14
2002-08-21 07:58:51 51°18.426 2°51.003 24.7 2 27.3 13.7
2002-08-21 07:58:56 51°18.428 2°51.004 23.2 1.9 27.3 13.7
2002-08-21 07:59:01 51°18.43 2°51.006 22.7 1.7 29.6 13.6
2002-08-21 07:59:05 51°18.431 2°51.007 23 1.5 28.3 13.7
2002-08-21 07:59:11 51°18.434 2°51.009 22.5 1.5 26.4 13.9
2002-08-21 07:59:16 51°18.435 2°51.009 20.8 1.4 20 14.1
2002-08-21 07:59:21 51°18.437 2°51.01 20 1.3 20 14
2002-08-21 07:59:25 51°18.438 2°51.012 18.5 1.2 24.8 13.8
2002-08-21 07:59:32 51°18.44 2°51.013 17.3 1.2 19 13.7
2002-08-21 07:59:37 51°18.441 2°51.014 15.2 1.1 22.4 13.7
2002-08-21 07:59:41 51°18.442 2°51.014 15.3 0.8 26.6 13.6
2002-08-21 07:59:46 51°18.443 2°51.014 16 0.6 23.2 13.7
2002-08-21 07:59:51 51°18.443 2°51.014 15.8 0.5 10.8 13.9
2002-08-21 07:59:57 51°18.444 2°51.014 15.2 0.5 8.1 14
2002-08-21 08:00:01 51°18.444 2°51.015 14 0.4 16.2 14.1
2002-08-21 08:00:05 51°18.445 2°51.015 13.7 0.3 18.9 14.2
2002-08-21 08:00:12 51°18.445 2°51.015 12.7 0.2 10.1 14.3
2002-08-21 08:00:17 51°18.445 2°51.015 12.7 0.2 11.5 14.3
2002-08-21 08:00:21 51°18.445 2°51.015 12.2 0.1 5.8 14.4
2002-08-21 08:00:25 51°18.445 2°51.015 12.5 0.1 53.8 14.4
2002-08-21 08:00:32 51°18.445 2°51.015 11.8   355.1 14.3
2002-08-21 08:00:36 51°18.445 2°51.015 11.7 0.1 270.3 14.3
2002-08-21 08:00:41 51°18.445 2°51.014 11.8 0.1 287.6 14.2
2002-08-21 08:00:46 51°18.445 2°51.014 11.8 0.1 286.4 14.2
2002-08-21 08:00:52 51°18.445 2°51.014 10.7   321.6 14.1
2002-08-21 08:00:57 51°18.445 2°51.014 10.5   172.6 14
2002-08-21 08:01:01 51°18.445 2°51.014 11 0.1 152.9 13.9
2002-08-21 08:01:05 51°18.445 2°51.014 11.5 0.1 223 14
2002-08-21 08:01:11 51°18.444 2°51.014 11.5 0.1 191 14
2002-08-21 08:01:16 51°18.444 2°51.014 11.3 0.2 165.2 13.9
2002-08-21 08:01:21 51°18.444 2°51.015 11.5 0.2 144.4 13.7
2002-08-21 08:01:26 51°18.443 2°51.015 12.8 0.3 163.1 13.6
2002-08-21 08:01:32 51°18.443 2°51.015 14.5 0.3 145.3 13.6
2002-08-21 08:01:36 51°18.443 2°51.014 15.3 0.2 164.3 13.7
2002-08-21 08:01:41 51°18.442 2°51.014 14.7 0.2 179 13.9
2002-08-21 08:01:45 51°18.442 2°51.014 14.8 0.2 201 14.2
2002-08-21 08:01:52 51°18.442 2°51.014 15 0.1 188.7 14.4
2002-08-21 08:01:56 51°18.442 2°51.014 14.2   220 14.5
2002-08-21 08:02:01 51°18.442 2°51.014 13.8   314.3 14.5
2002-08-21 08:02:07 51°18.442 2°51.014 13.5   43.5 14.5
2002-08-21 08:02:12 51°18.442 2°51.014 13   67.6 14.3
2002-08-21 08:02:17 51°18.442 2°51.014 13.7 0.1 287.3 14.3
2002-08-21 08:02:21 51°18.442 2°51.014 13.7 0.1 266.2 14.2
2002-08-21 08:02:25 51°18.442 2°51.014 13.2 0.1 241.4 13.9
2002-08-21 08:02:32 51°18.441 2°51.014 12.3 0.2 193.7 13.6
2002-08-21 08:02:36 51°18.441 2°51.014 11.7 0.3 197.2 13.5
2002-08-21 08:02:41 51°18.441 2°51.014 11.8 0.3 176.4 13.5
2002-08-21 08:02:45 51°18.44 2°51.014 12.3 0.3 180.6 13.7
2002-08-21 08:02:51 51°18.44 2°51.014 13.2 0.2 182.1 14
2002-08-21 08:02:56 51°18.44 2°51.014 13 0.2 191 14.3
2002-08-21 08:03:01 51°18.439 2°51.014 12.5 0.1 189.9 14.5
2002-08-21 08:03:07 51°18.439 2°51.014 12.5 0.1 210.1 14.4
2002-08-21 08:03:12 51°18.439 2°51.014 12.2 0.2 182.1 14.2
2002-08-21 08:03:16 51°18.438 2°51.013 12.5 0.4 185.6 14
2002-08-21 08:03:21 51°18.437 2°51.013 13.2 0.5 176.5 13.8
2002-08-21 08:03:27 51°18.436 2°51.013 14 0.5 180.2 13.8
2002-08-21 08:03:32 51°18.436 2°51.013 14.3 0.6 187.1 13.7
2002-08-21 08:03:36 51°18.435 2°51.013 15.2 0.6 178.5 13.7
2002-08-21 08:03:41 51°18.435 2°51.014 15 0.6 179.1 13.7
2002-08-21 08:03:45 51°18.434 2°51.014 15.2 0.5 176.7 13.7
2002-08-21 08:03:51 51°18.433 2°51.014 17 0.5 178.8 13.9
2002-08-21 08:03:56 51°18.432 2°51.014 18.5 0.5 180.3 14.1
2002-08-21 08:04:01 51°18.432 2°51.014 19.3 0.4 174 14.4
2002-08-21 08:04:07 51°18.432 2°51.014 20 0.3 176.9 14.5
2002-08-21 08:04:12 51°18.431 2°51.014 19.2 0.2 175.1 14.6
2002-08-21 08:04:16 51°18.431 2°51.014 18.7 0.2 178.9 14.6
2002-08-21 08:04:21 51°18.431 2°51.014 18.3 0.1 143.4 14.6
2002-08-21 08:04:25 51°18.431 2°51.014 17.7 0.1 105.1 14.6
2002-08-21 08:04:31 51°18.431 2°51.014 17.2 0.1 54.4 14.4
2002-08-21 08:04:36 51°18.431 2°51.014 17.3 0.1 38.4 14.3
2002-08-21 08:04:41 51°18.431 2°51.014 16.2 0.1 25 14.3
2002-08-21 08:04:47 51°18.432 2°51.014 15.3 0.2 1.4 14.2
2002-08-21 08:04:52 51°18.432 2°51.014 14.3 0.3   14.1
2002-08-21 08:04:57 51°18.433 2°51.014 13.3 0.3 352.7 14
2002-08-21 08:05:01 51°18.433 2°51.014 13 0.3 2 13.9
2002-08-21 08:05:05 51°18.433 2°51.014 12.2 0.2 349.8 13.8
2002-08-21 08:05:11 51°18.433 2°51.014 11.7 0.2 339 13.8
2002-08-21 08:05:17 51°18.434 2°51.013 11.5 0.1 340.9 13.8
2002-08-21 08:05:21 51°18.434 2°51.013 11 0.1 315.2 13.8
2002-08-21 08:05:26 51°18.434 2°51.013 10.8 0.1 319.7 13.9
2002-08-21 08:05:32 51°18.435 2°51.013 9.7 0.3 332.8 14.1
2002-08-21 08:05:36 51°18.435 2°51.013 9.5 0.3 336.3 14.2
2002-08-21 08:05:41 51°18.435 2°51.012 8.5 0.5 326.7 14.3
2002-08-21 08:05:45 51°18.436 2°51.011 7.5 0.5 325.2 14.3
2002-08-21 08:05:51 51°18.437 2°51.01 6.3 0.6 326.7 14.3
2002-08-21 08:05:57 51°18.438 2°51.009 5 0.6 326.9 14.2
2002-08-21 08:06:01 51°18.438 2°51.009 3 0.7 327.7 14.1
2002-08-21 08:06:07 51°18.439 2°51.008 1.7 0.7 331.1 14.1
2002-08-21 08:06:11 51°18.44 2°51.007 0.2 0.7 328.4 14.2
2002-08-21 08:06:16 51°18.441 2°51.006 358.8 0.8 324.8 14.2
2002-08-21 08:06:21 51°18.441 2°51.004 357.7 0.8 317.6 14.3
2002-08-21 08:06:27 51°18.443 2°51.003 357.2 0.8 314.2 14.2
2002-08-21 08:06:32 51°18.443 2°51.001 356.2 0.8 311.5 14.3
2002-08-21 08:06:36 51°18.444 2°51 355 0.8 313.7 14.2
2002-08-21 08:06:42 51°18.444 2°50.999 354.2 0.8 314.3 14.2
2002-08-21 08:06:46 51°18.445 2°50.998 353.7 0.7 312.9 14.1
2002-08-21 08:06:51 51°18.445 2°50.996 352.8 0.7 300.1 14.1
2002-08-21 08:06:56 51°18.445 2°50.995 352.3 0.7 286.2 14.1
2002-08-21 08:07:01 51°18.445 2°50.993 351.5 0.7 275.1 14.1
2002-08-21 08:07:07 51°18.445 2°50.991 351 0.7 270.1 14
2002-08-21 08:07:11 51°18.445 2°50.99 350 0.6 271.1 13.9
2002-08-21 08:07:17 51°18.445 2°50.989 349 0.6 268.2 14
2002-08-21 08:07:21 51°18.446 2°50.987 349.2 0.7 271.4 14
2002-08-21 08:07:26 51°18.446 2°50.986 349.7 0.7 267 14.1
2002-08-21 08:07:32 51°18.445 2°50.984 350.2 0.7 256.9 14.1
2002-08-21 08:07:37 51°18.444 2°50.982 351 0.8 250.5 14.1
2002-08-21 08:07:41 51°18.444 2°50.981 351.8 0.7 247.6 14.1
2002-08-21 08:07:47 51°18.444 2°50.979 352.3 0.8 248.6 14.2
2002-08-21 08:07:52 51°18.443 2°50.978 354.2 0.7 247.9 14.2
2002-08-21 08:07:57 51°18.443 2°50.976 355 0.7 245.7 14.2
2002-08-21 08:08:01 51°18.443 2°50.975 356.7 0.7 246.2 14.3
2002-08-21 08:08:05 51°18.442 2°50.974 358.3 0.6 246.9 14.3
2002-08-21 08:08:12 51°18.442 2°50.972 0.3 0.5 253.1 14.3
2002-08-21 08:08:16 51°18.442 2°50.972 1.8 0.5 250.1 14.3
2002-08-21 08:08:21 51°18.441 2°50.971 4.3 0.4 245.5 14.3
2002-08-21 08:08:27 51°18.441 2°50.97 7.5 0.4 242.1 14.3
2002-08-21 08:08:32 51°18.44 2°50.969 9.8 0.4 230.4 14.2
2002-08-21 08:08:37 51°18.44 2°50.969 11.8 0.4 220 14.2
2002-08-21 08:08:41 51°18.44 2°50.969 14 0.3 213.7 14.1
2002-08-21 08:08:45 51°18.439 2°50.969 15.3 0.3 208.2 14
2002-08-21 08:08:52 51°18.439 2°50.969 17 0.3 198.9 13.9
2002-08-21 08:08:56 51°18.439 2°50.968 18.5 0.3 202 13.9
2002-08-21 08:09:01 51°18.438 2°50.968 20.2 0.3 192.3 13.9
2002-08-21 08:09:07 51°18.438 2°50.968 21 0.2 165.3 14
2002-08-21 08:09:12 51°18.438 2°50.968 22.2 0.2 175.6 14
2002-08-21 08:09:16 51°18.437 2°50.968 22.5 0.2 171.4 14.1
2002-08-21 08:09:21 51°18.437 2°50.969 22.2 0.2 161.5 14.1
2002-08-21 08:09:27 51°18.437 2°50.969 21.7 0.2 150 14.2
2002-08-21 08:09:32 51°18.437 2°50.969 21.8 0.2 162 14.2
2002-08-21 08:09:37 51°18.436 2°50.969 21.8 0.2 166.8 14.2
2002-08-21 08:09:41 51°18.436 2°50.969 21.8 0.1 162 14.2
2002-08-21 08:09:47 51°18.436 2°50.969 22.2 0.2 157.7 14.2
2002-08-21 08:09:52 51°18.436 2°50.969 22.5 0.2 156.4 14.2
2002-08-21 08:09:56 51°18.436 2°50.969 23.2 0.2 145.4 14.1
2002-08-21 08:10:01 51°18.435 2°50.97 23.3 0.3 147.2 14.1
2002-08-21 08:10:07 51°18.434 2°50.97 23.7 0.4 167.4 14.1
2002-08-21 08:10:11 51°18.434 2°50.97 24.5 0.4 172.9 14.2
2002-08-21 08:10:17 51°18.434 2°50.97 24.5 0.3 168.6 14.2
2002-08-21 08:10:21 51°18.433 2°50.97 23.8 0.3 168.9 14.2
2002-08-21 08:10:26 51°18.433 2°50.97 23.7 0.2 159.1 14.1
2002-08-21 08:10:31 51°18.433 2°50.97 23.7 0.2 148.4 14.2
2002-08-21 08:10:36 51°18.433 2°50.97 23.3 0.2 137.8 14.1
2002-08-21 08:10:41 51°18.433 2°50.971 22.5 0.2 125.8 14.1
2002-08-21 08:10:47 51°18.432 2°50.971 22.5 0.2 124.9 14
2002-08-21 08:10:52 51°18.432 2°50.972 22.8 0.2 119 14
2002-08-21 08:10:56 51°18.432 2°50.972 23.7 0.2 128.4 13.9
2002-08-21 08:11:01 51°18.432 2°50.972 24 0.2 153.4 13.9
2002-08-21 08:11:07 51°18.431 2°50.972 23.3 0.3 130.9 13.8
2002-08-21 08:11:12 51°18.431 2°50.973 22.7 0.3 153.7 13.7
2002-08-21 08:11:16 51°18.431 2°50.973 22.2 0.3 158.8 13.8
2002-08-21 08:11:21 51°18.431 2°50.973 21.5 0.2 170.1 13.9
2002-08-21 08:11:25 51°18.431 2°50.973 21.7 0.2 159 14
2002-08-21 08:11:31 51°18.43 2°50.973 21.5 0.2 179.1 14.1
2002-08-21 08:11:37 51°18.43 2°50.973 21.8 0.2 146 14.2
2002-08-21 08:11:41 51°18.43 2°50.973 22 0.2 158.3 14.2
2002-08-21 08:11:47 51°18.429 2°50.974 22 0.2 150.4 14.2
2002-08-21 08:11:52 51°18.429 2°50.974 22.2 0.1 135 14.2
2002-08-21 08:11:57 51°18.429 2°50.974 21.8 0.2 126.5 14.2
2002-08-21 08:12:01 51°18.429 2°50.974 21 0.1 164.8 14.2
2002-08-21 08:12:07 51°18.429 2°50.974 21 0.2 154.9 14.2
2002-08-21 08:12:12 51°18.429 2°50.975 20.8 0.2 143.7 14.1
2002-08-21 08:12:16 51°18.428 2°50.975 21.3 0.2 153.1 14.2
2002-08-21 08:12:21 51°18.428 2°50.975 21.8 0.2 151.3 14.1
2002-08-21 08:12:27 51°18.427 2°50.975 21.5 0.2 155.7 14.1
2002-08-21 08:12:32 51°18.427 2°50.976 20.2 0.2 168.6 14.1
2002-08-21 08:12:36 51°18.427 2°50.975 20.3 0.2 195.7 14.1
2002-08-21 08:12:41 51°18.427 2°50.975 19.8 0.1 207.3 14.1
2002-08-21 08:12:47 51°18.427 2°50.975 19.5 0.1 194.2 14.2
2002-08-21 08:12:52 51°18.426 2°50.975 19.3 0.2 161.6 14
2002-08-21 08:12:57 51°18.426 2°50.976 19.8 0.3 154.7 13.9
2002-08-21 08:13:01 51°18.426 2°50.976 20.3 0.3 149.3 13.9
2002-08-21 08:13:07 51°18.425 2°50.976 21.5 0.3 162.8 13.9
2002-08-21 08:13:12 51°18.425 2°50.976 22.3 0.3 166.4 13.9
2002-08-21 08:13:17 51°18.424 2°50.976 22.7 0.3 173.9 14
2002-08-21 08:13:21 51°18.424 2°50.976 22.8 0.3 180.4 14.2
2002-08-21 08:13:26 51°18.424 2°50.976 22.5 0.3 184.2 14.3
2002-08-21 08:13:31 51°18.423 2°50.976 22.3 0.2 173.7 14.3
2002-08-21 08:13:37 51°18.423 2°50.976 22 0.2 167.8 14.3
2002-08-21 08:13:41 51°18.423 2°50.977 22 0.2 164.6 14.3
2002-08-21 08:13:45 51°18.423 2°50.976 22.2 0.2 168.3 14.3
2002-08-21 08:13:51 51°18.423 2°50.977 22.3 0.2 156.6 14.3
2002-08-21 08:13:56 51°18.422 2°50.977 22 0.1 174.6 14.3
2002-08-21 08:14:01 51°18.422 2°50.977 21.8 0.2 149.2 14
2002-08-21 08:14:05 51°18.422 2°50.977 23 0.3 167.3 13.7
2002-08-21 08:14:12 51°18.421 2°50.977 23.5 0.4 166 13.5
2002-08-21 08:14:17 51°18.421 2°50.978 23.8 0.3 164.3 13.6
2002-08-21 08:14:21 51°18.42 2°50.978 23.7 0.2 168.7 13.8
2002-08-21 08:14:26 51°18.42 2°50.978 23.2 0.2 151.4 14.1
2002-08-21 08:14:31 51°18.42 2°50.978 22.7 0.2 144.9 14.2
2002-08-21 08:14:36 51°18.42 2°50.979 23.5 0.3 140.5 14.2
2002-08-21 08:14:41 51°18.419 2°50.979 24.2 0.3 153.1 14.2
2002-08-21 08:14:47 51°18.418 2°50.979 25.2 0.4 161.1 14.2
2002-08-21 08:14:52 51°18.418 2°50.979 25.2 0.3 166 14.3
2002-08-21 08:14:56 51°18.417 2°50.98 25.8 0.4 162.6 14.3
2002-08-21 08:15:01 51°18.417 2°50.98 26 0.3 160.1 14.4
2002-08-21 08:15:05 51°18.417 2°50.981 25.8 0.3 150.7 14.4
2002-08-21 08:15:12 51°18.416 2°50.981 25.7 0.3 149.3 14.4
2002-08-21 08:15:16 51°18.416 2°50.981 25.8 0.2 138.6 14.3
2002-08-21 08:15:21 51°18.416 2°50.981 25 0.2 136.3 14.2
2002-08-21 08:15:27 51°18.416 2°50.982 25 0.2 132.7 14.1
2002-08-21 08:15:32 51°18.415 2°50.982 24.3 0.2 126.2 14.1
2002-08-21 08:15:37 51°18.415 2°50.982 24.2 0.2 126.9 14
2002-08-21 08:15:41 51°18.415 2°50.983 24.2 0.2 133.1 14
2002-08-21 08:15:47 51°18.415 2°50.983 24.5 0.2 142.5 14
2002-08-21 08:15:52 51°18.415 2°50.983 24.8 0.1 154.1 14
2002-08-21 08:15:56 51°18.414 2°50.983 24.3 0.2 136.5 14.1
2002-08-21 08:16:01 51°18.414 2°50.983 23.5 0.2 159.6 14
2002-08-21 08:16:05 51°18.414 2°50.984 22.7 0.2 135.2 14.1
2002-08-21 08:16:12 51°18.414 2°50.984 21.8 0.1 139 14.1
2002-08-21 08:16:17 51°18.414 2°50.984 21 0.1 126.2 14.2
2002-08-21 08:16:21 51°18.414 2°50.984 20 0.1 129.7 14.3
2002-08-21 08:16:25 51°18.414 2°50.984 19.5 0.1 97.7 14.4
2002-08-21 08:16:32 51°18.414 2°50.984 19.3 0.1 61.7 14.3
2002-08-21 08:16:36 51°18.414 2°50.985 19 0.2 73.4 14.3
2002-08-21 08:16:41 51°18.414 2°50.985 18.8 0.2 103.8 14.1
2002-08-21 08:16:46 51°18.414 2°50.986 20.3 0.3 124.1 13.8
2002-08-21 08:16:51 51°18.413 2°50.986 22.3 0.3 139.2 13.7
2002-08-21 08:16:57 51°18.412 2°50.986 23.2 0.3 145.5 13.9
2002-08-21 08:17:01 51°18.412 2°50.986 24.3 0.4 165.7 13.9
2002-08-21 08:17:07 51°18.411 2°50.987 24.7 0.5 166.6 13.8
2002-08-21 08:17:12 51°18.41 2°50.988 25.3 0.5 153.3 13.7
2002-08-21 08:17:17 51°18.41 2°50.988 26.2 0.5 156.2 13.7
2002-08-21 08:17:21 51°18.409 2°50.989 27.5 0.4 152.8 13.4
2002-08-21 08:17:25 51°18.409 2°50.989 27.3 0.4 145.3 14.2